createdAt,value
2023-03-13T00:01:41.831Z,99376.09
2023-03-13T00:04:11.190Z,99361.75
2023-03-13T00:06:40.496Z,99359.34
2023-03-13T00:09:10.301Z,99349.47
2023-03-13T00:11:38.619Z,99354.28
2023-03-13T00:14:08.016Z,99336.44
2023-03-13T00:16:37.471Z,99362.16
2023-03-13T00:19:06.851Z,99348.88
2023-03-13T00:21:37.514Z,99362.69
2023-03-13T00:24:05.698Z,99350.22
2023-03-13T00:26:33.915Z,99340.44
2023-03-13T00:29:01.620Z,99340.97
2023-03-13T00:31:30.957Z,99339.91
2023-03-13T00:34:01.332Z,99317.59
2023-03-13T00:36:31.063Z,99314.34
2023-03-13T00:39:01.738Z,99312.28
2023-03-13T00:41:31.311Z,99287.25
2023-03-13T00:43:59.505Z,99300.59
2023-03-13T00:46:29.651Z,99299.31
2023-03-13T00:48:58.029Z,99313.06
2023-03-13T00:51:27.053Z,99304.88
2023-03-13T00:53:56.361Z,99305.91
2023-03-13T00:56:25.536Z,99308.81
2023-03-13T00:58:53.445Z,99306.38
2023-03-13T01:01:24.118Z,99277.38
2023-03-13T01:03:53.542Z,99284.59
2023-03-13T01:06:24.362Z,99282.19
2023-03-13T01:08:52.320Z,99283.81
2023-03-13T01:11:22.191Z,99271.56
2023-03-13T01:13:55.212Z,99254.03
2023-03-13T01:16:23.401Z,99280.13
2023-03-13T01:18:53.525Z,99267.41
2023-03-13T01:24:09.863Z,99258.66
2023-03-13T01:26:37.875Z,99260.25
2023-03-13T01:29:06.914Z,99260.84
2023-03-13T01:31:36.706Z,99253.13
2023-03-13T01:34:06.956Z,99243.81
2023-03-13T01:36:37.189Z,99246.00
2023-03-13T01:39:05.888Z,99237.47
2023-03-13T01:41:34.256Z,99234.88
2023-03-13T01:44:02.146Z,99211.50
2023-03-13T01:46:31.653Z,99208.38
2023-03-13T01:49:04.435Z,99197.75
2023-03-13T01:51:36.181Z,99189.72
2023-03-13T01:54:08.618Z,99195.09
2023-03-13T01:56:41.674Z,99163.22
2023-03-13T01:59:14.451Z,99167.50
2023-03-13T02:01:48.272Z,99166.19
2023-03-13T02:04:17.535Z,99172.34
2023-03-13T02:06:48.969Z,99166.47
2023-03-13T02:09:20.960Z,99147.34
2023-03-13T02:11:53.411Z,99139.91
2023-03-13T02:14:24.725Z,99156.41
2023-03-13T02:16:54.597Z,99150.31
2023-03-13T02:19:29.818Z,99147.31
2023-03-13T02:22:03.229Z,99140.94
2023-03-13T02:24:39.048Z,99146.31
2023-03-13T02:27:08.689Z,99138.88
2023-03-13T02:29:36.215Z,99130.88
2023-03-13T02:32:04.196Z,99143.69
2023-03-13T02:34:36.437Z,99147.97
2023-03-13T02:37:06.415Z,99124.59
2023-03-13T02:39:35.431Z,99131.00
2023-03-13T02:42:04.536Z,99138.19
2023-03-13T02:44:38.602Z,99123.56
2023-03-13T02:47:06.534Z,99121.41
2023-03-13T02:49:34.213Z,99119.31
2023-03-13T02:52:10.300Z,99143.50
2023-03-13T02:54:40.461Z,99126.75
2023-03-13T02:57:08.477Z,99138.47
2023-03-13T02:59:37.872Z,99131.06
2023-03-13T03:02:05.840Z,99120.94
2023-03-13T03:04:33.542Z,99116.19
2023-03-13T03:07:01.496Z,99126.31
2023-03-13T03:09:29.137Z,99133.75
2023-03-13T03:11:57.016Z,99114.06
2023-03-13T03:14:25.094Z,99102.94
2023-03-13T03:16:54.121Z,99104.75
2023-03-13T03:19:21.771Z,99103.97
2023-03-13T03:21:49.882Z,99100.31
2023-03-13T03:24:17.791Z,99095.00
2023-03-13T03:26:45.447Z,99104.59
2023-03-13T03:29:13.408Z,99093.94
2023-03-13T03:31:41.160Z,99093.97
2023-03-13T03:34:10.190Z,99089.44
2023-03-13T03:36:38.087Z,99097.13
2023-03-13T03:39:05.944Z,99082.25
2023-03-13T03:41:33.624Z,99083.31
2023-03-13T03:44:01.605Z,99084.91
2023-03-13T03:46:29.309Z,99071.88
2023-03-13T03:48:57.131Z,99076.66
2023-03-13T03:51:26.397Z,99076.41
2023-03-13T03:53:54.669Z,99093.97
2023-03-13T03:56:22.377Z,99077.22
2023-03-13T03:58:50.429Z,99079.88
2023-03-13T04:01:18.174Z,99068.69
2023-03-13T04:03:45.941Z,99070.53
2023-03-13T04:06:13.954Z,99061.50
2023-03-13T04:08:43.002Z,99064.19
2023-03-13T04:11:10.736Z,99066.84
2023-03-13T04:13:38.720Z,99045.25
2023-03-13T04:16:08.510Z,99023.16
2023-03-13T04:18:36.322Z,99030.09
2023-03-13T04:21:06.591Z,99033.81
2023-03-13T04:23:34.264Z,99026.91
2023-03-13T04:26:03.311Z,99025.25
2023-03-13T04:28:31.405Z,99046.06
2023-03-13T04:30:59.148Z,99053.53
2023-03-13T04:33:26.891Z,99065.50
2023-03-13T04:35:54.901Z,99069.50
2023-03-13T04:38:22.596Z,99073.75
2023-03-13T04:40:50.252Z,99061.22
2023-03-13T04:43:19.628Z,99057.78
2023-03-13T04:45:47.552Z,99052.69
2023-03-13T04:48:15.224Z,99051.91
2023-03-13T04:50:43.226Z,99063.63
2023-03-13T04:53:10.861Z,99069.50
2023-03-13T04:55:38.502Z,99066.28
2023-03-13T04:58:06.509Z,99056.72
2023-03-13T05:00:35.613Z,99067.34
2023-03-13T05:03:03.271Z,99055.91
2023-03-13T05:05:31.255Z,99052.44
2023-03-13T05:07:59.089Z,99027.91
2023-03-13T05:10:26.794Z,99047.13
2023-03-13T05:12:54.838Z,99055.63
2023-03-13T05:15:22.474Z,99044.44
2023-03-13T05:17:53.610Z,99034.84
2023-03-13T05:20:22.489Z,99038.31
2023-03-13T05:22:50.770Z,99052.44
2023-03-13T05:25:18.694Z,99045.50
2023-03-13T05:27:46.856Z,99039.63
2023-03-13T05:30:14.738Z,99026.84
2023-03-13T05:32:42.411Z,99032.19
2023-03-13T05:35:11.822Z,99033.25
2023-03-13T05:37:41.347Z,99040.44
2023-03-13T05:40:09.970Z,99019.91
2023-03-13T05:42:37.855Z,99022.03
2023-03-13T05:45:06.060Z,99027.34
2023-03-13T05:47:33.725Z,99027.34
2023-03-13T05:50:01.755Z,99018.28
2023-03-13T05:52:30.759Z,99015.91
2023-03-13T05:54:58.422Z,99011.66
2023-03-13T05:57:26.713Z,99009.22
2023-03-13T05:59:54.856Z,99011.91
2023-03-13T06:02:22.582Z,99011.88
2023-03-13T06:04:50.657Z,99004.72
2023-03-13T06:07:18.412Z,99001.78
2023-03-13T06:09:47.433Z,99000.19
2023-03-13T06:12:15.372Z,98994.59
2023-03-13T06:14:43.006Z,98982.56
2023-03-13T06:17:10.640Z,98973.25
2023-03-13T06:19:38.637Z,98976.69
2023-03-13T06:22:06.518Z,98969.00
2023-03-13T06:24:34.405Z,98977.78
2023-03-13T06:27:03.871Z,98977.22
2023-03-13T06:29:31.545Z,99002.03
2023-03-13T06:31:59.288Z,98974.84
2023-03-13T06:34:27.034Z,98980.72
2023-03-13T06:36:54.722Z,98976.72
2023-03-13T06:39:22.393Z,98984.19
2023-03-13T06:41:50.371Z,98985.22
2023-03-13T06:44:19.413Z,98985.50
2023-03-13T06:46:47.230Z,98990.53
2023-03-13T06:49:15.011Z,98980.13
2023-03-13T06:51:42.676Z,98977.25
2023-03-13T06:54:10.329Z,98970.25
2023-03-13T06:56:38.482Z,98979.31
2023-03-13T06:59:06.231Z,98984.66
2023-03-13T07:01:35.311Z,98978.25
2023-03-13T07:04:03.465Z,98976.41
2023-03-13T07:06:31.230Z,98966.03
2023-03-13T07:08:58.939Z,98979.88
2023-03-13T07:11:27.065Z,98967.88
2023-03-13T07:14:06.491Z,98964.41
2023-03-13T07:16:44.648Z,98963.63
2023-03-13T07:19:12.184Z,98956.41
2023-03-13T07:21:39.852Z,98986.53
2023-03-13T07:24:08.480Z,98976.34
2023-03-13T07:26:36.370Z,98964.91
2023-03-13T07:29:04.303Z,98970.00
2023-03-13T07:31:34.560Z,98971.28
2023-03-13T07:34:03.631Z,98960.63
2023-03-13T07:36:31.413Z,98965.44
2023-03-13T07:38:59.224Z,98977.94
2023-03-13T07:41:26.873Z,98963.53
2023-03-13T07:43:54.547Z,98972.31
2023-03-13T07:46:22.676Z,98988.84
2023-03-13T07:48:51.166Z,98976.53
2023-03-13T07:51:33.493Z,98981.09
2023-03-13T07:56:56.925Z,98983.19
2023-03-13T07:59:25.075Z,98962.69
2023-03-13T08:01:52.805Z,98986.16
2023-03-13T08:04:20.477Z,98986.75
2023-03-13T08:06:50.166Z,99002.72
2023-03-13T08:09:17.816Z,98982.44
2023-03-13T08:11:45.486Z,98971.81
2023-03-13T08:14:13.356Z,98982.16
2023-03-13T08:16:41.147Z,98978.69
2023-03-13T08:19:08.931Z,98992.31
2023-03-13T08:21:38.270Z,98981.41
2023-03-13T08:24:10.571Z,98978.16
2023-03-13T08:26:40.320Z,98960.78
2023-03-13T08:29:09.905Z,98982.91
2023-03-13T08:31:38.638Z,98965.81
2023-03-13T08:34:06.656Z,98971.41
2023-03-13T08:36:36.333Z,98979.09
2023-03-13T08:39:05.827Z,98967.66
2023-03-13T08:41:37.100Z,98963.09
2023-03-13T08:44:05.916Z,98964.94
2023-03-13T08:46:35.670Z,98967.06
2023-03-13T08:49:05.859Z,98977.19
2023-03-13T08:51:33.995Z,98944.91
2023-03-13T08:54:02.548Z,98944.91
2023-03-13T08:56:31.412Z,98953.97
2023-03-13T08:59:02.309Z,98941.13
2023-03-13T09:01:32.352Z,98936.53
2023-03-13T09:04:03.656Z,98948.25
2023-03-13T09:06:32.625Z,98945.84
2023-03-13T09:09:00.293Z,98921.03
2023-03-13T09:11:28.299Z,98947.69
2023-03-13T09:13:59.735Z,98939.88
2023-03-13T09:16:30.274Z,98934.03
2023-03-13T09:19:00.203Z,98932.91
2023-03-13T09:21:29.842Z,98938.22
2023-03-13T09:23:57.516Z,98922.13
2023-03-13T09:26:25.941Z,98908.28
2023-03-13T09:28:54.112Z,98905.88
2023-03-13T09:31:23.822Z,98910.81
2023-03-13T09:33:54.344Z,98908.63
2023-03-13T09:36:23.789Z,98899.78
2023-03-13T09:38:52.176Z,98892.56
2023-03-13T09:41:25.249Z,98891.94
2023-03-13T09:43:59.714Z,98895.41
2023-03-13T09:46:33.746Z,98885.69
2023-03-13T09:49:06.882Z,98875.50
2023-03-13T09:51:38.909Z,98884.91
2023-03-13T09:54:09.896Z,98874.44
2023-03-13T09:56:42.392Z,98873.56
2023-03-13T09:59:18.903Z,98859.66
2023-03-13T10:01:49.176Z,98864.47
2023-03-13T10:04:32.108Z,98859.66
2023-03-13T10:07:00.626Z,98857.94
2023-03-13T10:09:31.808Z,98851.38
2023-03-13T10:12:09.387Z,98861.41
2023-03-13T10:14:47.462Z,98846.91
2023-03-13T10:17:24.280Z,98846.63
2023-03-13T10:19:58.851Z,98841.53
2023-03-13T10:22:30.678Z,98843.03
2023-03-13T10:25:01.679Z,98856.84
2023-03-13T10:27:29.743Z,98836.03
2023-03-13T10:29:58.102Z,98853.97
2023-03-13T10:32:28.379Z,98845.94
2023-03-13T10:35:00.773Z,98840.66
2023-03-13T10:37:30.631Z,98846.88
2023-03-13T10:40:14.290Z,98843.34
2023-03-13T10:42:45.691Z,98832.03
2023-03-13T10:45:18.591Z,98827.47
2023-03-13T10:47:46.452Z,98824.25
2023-03-13T10:50:23.657Z,98808.13
2023-03-13T10:52:52.183Z,98817.16
2023-03-13T10:55:21.714Z,98814.72
2023-03-13T10:57:56.957Z,98802.41
2023-03-13T11:00:30.918Z,98810.00
2023-03-13T11:02:59.463Z,98806.34
2023-03-13T11:05:37.654Z,98787.63
2023-03-13T11:08:15.050Z,98796.00
2023-03-13T11:10:54.742Z,98803.94
2023-03-13T11:13:36.980Z,98792.72
2023-03-13T11:16:18.970Z,98803.16
2023-03-13T11:18:58.833Z,98787.41
2023-03-13T11:21:36.835Z,98773.94
2023-03-13T11:24:10.505Z,98781.56
2023-03-13T11:26:49.690Z,98783.19
2023-03-13T11:29:30.700Z,98776.22
2023-03-13T11:32:01.810Z,98774.34
2023-03-13T11:34:36.456Z,98777.22
2023-03-13T11:37:12.102Z,98776.44
2023-03-13T11:39:56.414Z,98770.06
2023-03-13T11:42:49.116Z,98772.16
2023-03-13T11:45:34.627Z,98771.75
2023-03-13T11:48:10.961Z,98749.22
2023-03-13T11:50:46.065Z,98737.72
2023-03-13T11:53:31.384Z,98719.97
2023-03-13T11:56:10.016Z,98712.56
2023-03-13T11:58:59.334Z,98716.41
2023-03-13T12:01:31.281Z,98710.94
2023-03-13T12:04:05.146Z,98708.47
2023-03-13T12:06:36.484Z,98711.53
2023-03-13T12:09:13.682Z,98712.25
2023-03-13T12:11:48.602Z,98698.00
2023-03-13T12:14:20.087Z,98701.88
2023-03-13T12:16:54.269Z,98688.28
2023-03-13T12:19:29.537Z,98687.13
2023-03-13T12:22:03.041Z,98684.16
2023-03-13T12:24:36.553Z,98672.72
2023-03-13T12:27:15.916Z,98663.59
2023-03-13T12:29:49.925Z,98685.22
2023-03-13T12:32:25.866Z,98686.19
2023-03-13T12:35:01.868Z,98693.44
2023-03-13T12:37:40.560Z,98676.97
2023-03-13T12:40:22.881Z,98670.59
2023-03-13T12:42:57.216Z,98686.25
2023-03-13T12:45:29.313Z,98689.44
2023-03-13T12:48:23.899Z,98694.81
2023-03-13T12:51:15.431Z,98682.09
2023-03-13T12:54:05.762Z,98678.72
2023-03-13T12:57:04.800Z,98682.31
2023-03-13T12:59:39.423Z,98666.13
2023-03-13T13:02:17.719Z,98683.09
2023-03-13T13:04:48.548Z,98672.63
2023-03-13T13:07:27.538Z,98663.09
2023-03-13T13:10:18.441Z,98656.25
2023-03-13T13:12:48.861Z,98631.56
2023-03-13T13:15:21.434Z,98642.06
2023-03-13T13:18:14.820Z,98643.47
2023-03-13T13:20:50.565Z,98639.69
2023-03-13T13:23:34.770Z,98635.56
2023-03-13T13:26:37.689Z,98627.53
2023-03-13T13:29:57.287Z,98624.66
2023-03-13T13:32:43.107Z,98621.25
2023-03-13T13:35:28.890Z,98610.53
2023-03-13T13:38:40.775Z,98588.22
2023-03-13T13:41:28.221Z,98605.66
2023-03-13T13:44:21.866Z,98595.63
2023-03-13T13:46:51.989Z,98579.66
2023-03-13T13:49:22.119Z,98594.53
2023-03-13T13:52:23.209Z,98587.69
2023-03-13T13:54:56.747Z,98565.84
2023-03-13T13:57:26.349Z,98568.72
2023-03-13T13:59:55.523Z,98560.84
2023-03-13T14:02:26.994Z,98568.00
2023-03-13T14:05:05.005Z,98563.59
2023-03-13T14:07:44.360Z,98564.22
2023-03-13T14:10:36.634Z,98555.25
2023-03-13T14:13:13.361Z,98565.19
2023-03-13T14:15:44.913Z,98553.16
2023-03-13T14:18:22.180Z,98542.63
2023-03-13T14:21:03.683Z,98547.09
2023-03-13T14:23:40.555Z,98534.00
2023-03-13T14:26:14.333Z,98535.56
2023-03-13T14:28:45.357Z,98524.78
2023-03-13T14:31:22.904Z,98531.19
2023-03-13T14:33:52.969Z,98508.00
2023-03-13T14:36:20.664Z,98512.38
2023-03-13T14:38:56.609Z,98509.19
2023-03-13T14:41:31.927Z,98499.88
2023-03-13T14:44:05.720Z,98496.28
2023-03-13T14:46:35.869Z,98489.34
2023-03-13T14:49:14.462Z,98483.22
2023-03-13T14:51:42.802Z,98476.25
2023-03-13T14:54:28.870Z,98471.00
2023-03-13T14:57:14.648Z,98472.25
2023-03-13T14:59:43.770Z,98450.22
2023-03-13T15:02:19.895Z,98455.06
2023-03-13T15:04:59.905Z,98450.06
2023-03-13T15:07:36.264Z,98443.75
2023-03-13T15:10:20.616Z,98430.22
2023-03-13T15:12:48.997Z,98436.50
2023-03-13T15:15:17.385Z,98428.66
2023-03-13T15:17:46.015Z,98433.81
2023-03-13T15:20:17.018Z,98429.06
2023-03-13T15:22:47.402Z,98424.53
2023-03-13T15:25:18.227Z,98408.13
2023-03-13T15:27:46.168Z,98412.56
2023-03-13T15:30:17.673Z,98402.31
2023-03-13T15:32:46.896Z,98394.72
2023-03-13T15:35:25.803Z,98399.94
2023-03-13T15:37:53.509Z,98385.91
2023-03-13T15:40:21.511Z,98398.66
2023-03-13T15:42:49.711Z,98394.63
2023-03-13T15:45:17.615Z,98378.69
2023-03-13T15:47:45.378Z,98376.81
2023-03-13T15:50:14.772Z,98373.97
2023-03-13T15:52:43.848Z,98361.38
2023-03-13T15:55:13.081Z,98367.97
2023-03-13T15:57:47.475Z,98366.22
2023-03-13T16:00:19.744Z,98361.97
2023-03-13T16:02:48.022Z,98355.94
2023-03-13T16:05:16.012Z,98355.00
2023-03-13T16:07:45.086Z,98357.31
2023-03-13T16:10:18.162Z,98365.22
2023-03-13T16:12:45.922Z,98358.28
2023-03-13T16:15:13.645Z,98360.50
2023-03-13T16:17:42.210Z,98347.38
2023-03-13T16:20:15.999Z,98344.06
2023-03-13T16:22:45.812Z,98337.13
2023-03-13T16:25:14.093Z,98330.00
2023-03-13T16:27:42.510Z,98322.59
2023-03-13T16:30:17.256Z,98319.13
2023-03-13T16:32:45.051Z,98326.03
2023-03-13T16:35:12.771Z,98319.38
2023-03-13T16:37:41.031Z,98322.06
2023-03-13T16:40:17.743Z,98317.50
2023-03-13T16:42:46.330Z,98309.91
2023-03-13T16:45:15.400Z,98310.03
2023-03-13T16:47:44.056Z,98299.91
2023-03-13T16:50:20.476Z,98302.44
2023-03-13T16:52:48.140Z,98308.72
2023-03-13T16:55:17.536Z,98304.97
2023-03-13T16:57:46.012Z,98302.31
2023-03-13T17:00:16.708Z,98296.44
2023-03-13T17:02:44.830Z,98290.94
2023-03-13T17:05:15.966Z,98287.44
2023-03-13T17:07:45.113Z,98296.28
2023-03-13T17:10:21.056Z,98285.22
2023-03-13T17:12:49.450Z,98285.16
2023-03-13T17:15:18.163Z,98296.56
2023-03-13T17:17:52.354Z,98279.22
2023-03-13T17:20:22.454Z,98287.69
2023-03-13T17:22:50.324Z,98279.16
2023-03-13T17:25:19.655Z,98269.25
2023-03-13T17:27:48.450Z,98267.59
2023-03-13T17:30:21.678Z,98280.19
2023-03-13T17:32:50.269Z,98274.06
2023-03-13T17:35:19.038Z,98269.50
2023-03-13T17:40:38.472Z,98277.06
2023-03-13T17:43:06.162Z,98264.78
2023-03-13T17:45:37.347Z,98270.91
2023-03-13T17:48:05.566Z,98270.84
2023-03-13T17:50:33.254Z,98256.22
2023-03-13T17:53:01.262Z,98246.59
2023-03-13T17:55:28.925Z,98253.34
2023-03-13T17:57:58.019Z,98260.91
2023-03-13T18:00:29.569Z,98266.38
2023-03-13T18:02:57.875Z,98263.50
2023-03-13T18:05:25.760Z,98256.41
2023-03-13T18:07:56.598Z,98263.91
2023-03-13T18:10:26.595Z,98259.97
2023-03-13T18:12:54.732Z,98255.22
2023-03-13T18:15:25.659Z,98247.34
2023-03-13T18:17:53.940Z,98241.81
2023-03-13T18:20:24.304Z,98238.84
2023-03-13T18:22:52.157Z,98236.47
2023-03-13T18:25:20.165Z,98229.91
2023-03-13T18:27:47.808Z,98231.50
2023-03-13T18:30:19.032Z,98236.50
2023-03-13T18:32:48.184Z,98239.63
2023-03-13T18:35:16.183Z,98232.25
2023-03-13T18:37:46.266Z,98230.50
2023-03-13T18:40:22.203Z,98225.03
2023-03-13T18:42:50.840Z,98227.25
2023-03-13T18:45:21.211Z,98223.09
2023-03-13T18:47:50.720Z,98215.38
2023-03-13T18:50:26.263Z,98210.16
2023-03-13T18:52:55.567Z,98211.66
2023-03-13T18:55:23.646Z,98208.38
2023-03-13T18:57:51.507Z,98216.03
2023-03-13T19:00:21.658Z,98210.19
2023-03-13T19:02:51.197Z,98210.91
2023-03-13T19:05:19.837Z,98192.69
2023-03-13T19:07:48.206Z,98194.91
2023-03-13T19:10:21.442Z,98200.91
2023-03-13T19:12:49.964Z,98205.28
2023-03-13T19:15:17.902Z,98193.72
2023-03-13T19:17:46.321Z,98206.00
2023-03-13T19:20:20.088Z,98207.38
2023-03-13T19:22:48.712Z,98200.63
2023-03-13T19:25:17.617Z,98194.50
2023-03-13T19:27:46.820Z,98198.25
2023-03-13T19:30:19.460Z,98187.38
2023-03-13T19:32:48.276Z,98188.75
2023-03-13T19:35:21.063Z,98182.72
2023-03-13T19:37:50.258Z,98188.16
2023-03-13T19:40:20.970Z,98192.41
2023-03-13T19:42:49.179Z,98195.19
2023-03-13T19:45:20.443Z,98198.38
2023-03-13T19:47:48.865Z,98190.34
2023-03-13T19:50:21.371Z,98188.78
2023-03-13T19:52:49.553Z,98170.19
2023-03-13T19:55:18.058Z,98181.16
2023-03-13T19:57:47.124Z,98191.41
2023-03-13T20:00:21.461Z,98184.81
2023-03-13T20:02:50.559Z,98173.94
2023-03-13T20:05:20.022Z,98189.16
2023-03-13T20:07:48.404Z,98186.28
2023-03-13T20:10:17.313Z,98186.56
2023-03-13T20:12:45.540Z,98200.56
2023-03-13T20:15:14.055Z,98204.34
2023-03-13T20:17:42.628Z,98213.41
2023-03-13T20:20:13.998Z,98211.84
2023-03-13T20:22:44.094Z,98215.66
2023-03-13T20:25:12.565Z,98210.94
2023-03-13T20:27:40.732Z,98212.38
2023-03-13T20:30:10.681Z,98206.84
2023-03-13T20:32:49.110Z,98206.38
2023-03-13T20:35:25.699Z,98216.50
2023-03-13T20:37:57.390Z,98201.59
2023-03-13T20:40:25.162Z,98190.69
2023-03-13T20:42:53.880Z,98187.81
2023-03-13T20:45:22.102Z,98197.19
2023-03-13T20:47:49.926Z,98188.91
2023-03-13T20:50:19.779Z,98174.50
2023-03-13T20:52:48.707Z,98169.94
2023-03-13T20:55:18.537Z,98148.94
2023-03-13T20:57:47.267Z,98145.97
2023-03-13T21:00:16.283Z,98128.19
2023-03-13T21:02:44.426Z,98126.03
2023-03-13T21:05:13.487Z,98136.47
2023-03-13T21:07:41.446Z,98132.03
2023-03-13T21:10:11.629Z,98143.38
2023-03-13T21:12:42.095Z,98137.56
2023-03-13T21:15:10.991Z,98147.94
2023-03-13T21:17:39.917Z,98139.63
2023-03-13T21:20:12.368Z,98144.25
2023-03-13T21:22:40.533Z,98152.78
2023-03-13T21:25:10.073Z,98153.25
2023-03-13T21:27:38.183Z,98150.09
2023-03-13T21:30:10.658Z,98156.50
2023-03-13T21:32:40.870Z,98157.09
2023-03-13T21:35:10.346Z,98149.56
2023-03-13T21:37:38.688Z,98164.88
2023-03-13T21:40:09.193Z,98166.25
2023-03-13T21:42:37.714Z,98163.59
2023-03-13T21:45:09.013Z,98161.41
2023-03-13T21:47:37.773Z,98161.97
2023-03-13T21:50:08.152Z,98162.81
2023-03-13T21:52:40.913Z,98164.09
2023-03-13T21:55:12.775Z,98151.63
2023-03-13T21:57:41.381Z,98159.69
2023-03-13T22:00:14.074Z,98154.91
2023-03-13T22:02:42.851Z,98148.75
2023-03-13T22:05:11.412Z,98144.72
2023-03-13T22:07:39.517Z,98168.69
2023-03-13T22:10:08.543Z,98175.47
2023-03-13T22:12:37.457Z,98177.06
2023-03-13T22:15:06.443Z,98179.06
2023-03-13T22:17:35.937Z,98176.06
2023-03-13T22:20:04.190Z,98175.06
2023-03-13T22:22:32.181Z,98168.28
2023-03-13T22:25:00.729Z,98180.53
2023-03-13T22:27:28.873Z,98188.09
2023-03-13T22:29:57.885Z,98172.91
2023-03-13T22:32:26.524Z,98164.13
2023-03-13T22:34:56.222Z,98175.34
2023-03-13T22:40:14.125Z,98175.41
2023-03-13T22:42:42.771Z,98173.25
2023-03-13T22:45:11.872Z,98178.00
2023-03-13T22:47:40.425Z,98163.69
2023-03-13T22:50:11.959Z,98167.91
2023-03-13T22:52:40.421Z,98169.38
2023-03-13T22:55:09.059Z,98163.25
2023-03-13T22:57:37.526Z,98171.19
2023-03-13T23:00:09.048Z,98170.66
2023-03-13T23:02:37.109Z,98166.78
2023-03-13T23:05:05.574Z,98164.97
2023-03-13T23:07:38.782Z,98167.94
2023-03-13T23:10:08.491Z,98162.81
2023-03-13T23:12:36.361Z,98165.13
2023-03-13T23:15:05.021Z,98168.50
2023-03-13T23:17:34.806Z,98161.06
2023-03-13T23:20:08.267Z,98167.25
2023-03-13T23:22:37.870Z,98168.69
2023-03-13T23:25:05.792Z,98163.09
2023-03-13T23:27:34.088Z,98165.75
2023-03-13T23:30:04.218Z,98154.31
2023-03-13T23:32:32.718Z,98151.19
2023-03-13T23:35:01.235Z,98140.63
2023-03-13T23:37:29.488Z,98139.75
2023-03-13T23:39:59.288Z,98150.41
2023-03-13T23:42:27.892Z,98158.44
2023-03-13T23:44:56.184Z,98160.88
2023-03-13T23:47:24.179Z,98167.47
2023-03-13T23:49:53.026Z,98163.31
2023-03-13T23:52:20.870Z,98168.19
2023-03-13T23:54:48.749Z,98172.47
2023-03-13T23:57:18.727Z,98162.88
2023-03-13T23:59:46.780Z,98147.41
